IGO7145 VAAH-VIJP
Flight info
| Callsign | IGO7145 |
|---|---|
| Flight time | N/A |
| Altitude | 35000 |
| Route | UUD Q3 BUBNU |
| Aircraft | A320/M-SDE3FGHIRWY/LB1 |
Departure
| Time | 2026-04-25 17:56 |
|---|---|
| Airport | Sardar Vallabh Patel International Airport (VAAH) |
Arrival
| Time | N/A |
|---|---|
| Airport | Jaipur International Airport (VIJP) |
| Time | Latitude | Longitude | Altitude | Speed | Heading |
|---|---|---|---|---|---|
| 2026-04-25 17:51 | 23.07018 | 72.61928 | 207 ft | 0 kts | 134° |
| 2026-04-25 17:52 | 23.07016 | 72.61930 | 209 ft | 1 kts | 134° |
| 2026-04-25 17:52 | 23.07009 | 72.61938 | 200 ft | 3 kts | 134° |
| 2026-04-25 17:52 | 23.06987 | 72.61963 | 206 ft | 4 kts | 134° |
| 2026-04-25 17:52 | 23.06961 | 72.61992 | 199 ft | 6 kts | 134° |
| 2026-04-25 17:53 | 23.06926 | 72.62032 | 206 ft | 8 kts | 134° |
| 2026-04-25 17:53 | 23.06876 | 72.62070 | 199 ft | 9 kts | 181° |
| 2026-04-25 17:53 | 23.06817 | 72.62032 | 196 ft | 10 kts | 189° |
| 2026-04-25 17:53 | 23.06763 | 72.62072 | 197 ft | 8 kts | 134° |
| 2026-04-25 17:54 | 23.06722 | 72.62120 | 196 ft | 10 kts | 134° |
| 2026-04-25 17:54 | 23.06672 | 72.62174 | 203 ft | 10 kts | 136° |
| 2026-04-25 17:54 | 23.06624 | 72.62227 | 195 ft | 10 kts | 126° |
| 2026-04-25 17:54 | 23.06641 | 72.62287 | 201 ft | 9 kts | 46° |
| 2026-04-25 17:55 | 23.06703 | 72.62355 | 204 ft | 22 kts | 44° |
| 2026-04-25 17:55 | 23.06936 | 72.62602 | 196 ft | 81 kts | 45° |
| 2026-04-25 17:55 | 23.07490 | 72.63197 | 201 ft | 139 kts | 45° |
| 2026-04-25 17:55 | 23.08286 | 72.64048 | 335 ft | 172 kts | 46° |
| 2026-04-25 17:56 | 23.09112 | 72.64973 | 977 ft | 171 kts | 44° |
| 2026-04-25 17:56 | 23.09953 | 72.65914 | 1340 ft | 180 kts | 40° |
| 2026-04-25 17:56 | 23.10975 | 72.66820 | 1527 ft | 201 kts | 34° |
| 2026-04-25 17:56 | 23.12163 | 72.67782 | 1730 ft | 225 kts | 34° |
| 2026-04-25 17:57 | 23.13487 | 72.68853 | 2032 ft | 248 kts | 34° |
| 2026-04-25 17:57 | 23.14906 | 72.70005 | 2622 ft | 259 kts | 34° |
| 2026-04-25 17:57 | 23.16343 | 72.71210 | 3330 ft | 265 kts | 38° |
| 2026-04-25 17:57 | 23.16798 | 72.71641 | 3568 ft | 267 kts | 40° |
| 2026-04-25 17:58 | 23.19141 | 72.73940 | 4766 ft | 275 kts | 40° |
| 2026-04-25 17:58 | 23.20662 | 72.75242 | 5492 ft | 280 kts | 37° |
| 2026-04-25 17:58 | 23.22235 | 72.76517 | 6215 ft | 284 kts | 37° |
| 2026-04-25 17:58 | 23.23824 | 72.77780 | 6902 ft | 289 kts | 37° |
| 2026-04-25 17:59 | 23.25454 | 72.79066 | 7666 ft | 290 kts | 37° |
| 2026-04-25 17:59 | 23.27092 | 72.80361 | 8437 ft | 292 kts | 38° |
| 2026-04-25 17:59 | 23.28734 | 72.81663 | 9214 ft | 293 kts | 38° |
| 2026-04-25 17:59 | 23.30388 | 72.82983 | 9977 ft | 295 kts | 38° |
| 2026-04-25 18:00 | 23.32087 | 72.84347 | 10278 ft | 315 kts | 38° |
| 2026-04-25 18:00 | 23.33912 | 72.85815 | 10427 ft | 337 kts | 38° |
| 2026-04-25 18:00 | 23.35836 | 72.87359 | 10815 ft | 348 kts | 38° |
| 2026-04-25 18:00 | 23.37803 | 72.88936 | 11384 ft | 353 kts | 37° |
| 2026-04-25 18:01 | 23.39783 | 72.90523 | 11977 ft | 356 kts | 38° |
| 2026-04-25 18:01 | 23.41788 | 72.92135 | 12578 ft | 360 kts | 37° |
| 2026-04-25 18:01 | 23.43815 | 72.93765 | 13141 ft | 364 kts | 37° |
| 2026-04-25 18:01 | 23.45869 | 72.95415 | 13718 ft | 369 kts | 37° |
| 2026-04-25 18:02 | 23.47947 | 72.97081 | 14254 ft | 372 kts | 36° |
| 2026-04-25 18:02 | 23.50042 | 72.98762 | 14820 ft | 374 kts | 36° |
| 2026-04-25 18:02 | 23.52143 | 73.00450 | 15374 ft | 377 kts | 36° |
| 2026-04-25 18:02 | 23.54257 | 73.02152 | 15930 ft | 379 kts | 36° |
| 2026-04-25 18:03 | 23.56384 | 73.03865 | 16461 ft | 382 kts | 36° |
| 2026-04-25 18:03 | 23.58521 | 73.05589 | 17013 ft | 384 kts | 36° |
| 2026-04-25 18:03 | 23.60678 | 73.07329 | 17550 ft | 387 kts | 35° |
| 2026-04-25 18:03 | 23.62853 | 73.09083 | 18088 ft | 390 kts | 35° |
| 2026-04-25 18:04 | 23.65015 | 73.10824 | 18563 ft | 392 kts | 35° |
| 2026-04-25 18:04 | 23.67221 | 73.12601 | 19043 ft | 395 kts | 35° |
| 2026-04-25 18:04 | 23.69435 | 73.14385 | 19526 ft | 397 kts | 35° |
| 2026-04-25 18:04 | 23.71662 | 73.16180 | 20019 ft | 399 kts | 35° |
| 2026-04-25 18:05 | 23.73903 | 73.17988 | 20507 ft | 401 kts | 36° |
| 2026-04-25 18:05 | 23.76150 | 73.19806 | 20988 ft | 403 kts | 36° |
| 2026-04-25 18:05 | 23.78409 | 73.21635 | 21459 ft | 405 kts | 36° |
| 2026-04-25 18:05 | 23.80672 | 73.23468 | 21949 ft | 407 kts | 36° |
| 2026-04-25 18:06 | 23.82956 | 73.25316 | 22410 ft | 409 kts | 36° |
| 2026-04-25 18:06 | 23.85254 | 73.27176 | 22880 ft | 411 kts | 36° |
| 2026-04-25 18:06 | 23.87561 | 73.29046 | 23328 ft | 413 kts | 36° |
| 2026-04-25 18:06 | 23.89877 | 73.30922 | 23727 ft | 416 kts | 36° |
| 2026-04-25 18:07 | 23.92214 | 73.32818 | 24100 ft | 418 kts | 36° |
| 2026-04-25 18:07 | 23.94521 | 73.34693 | 24451 ft | 420 kts | 36° |
| 2026-04-25 18:07 | 23.96873 | 73.36603 | 24815 ft | 422 kts | 36° |
| 2026-04-25 18:07 | 23.99243 | 73.38526 | 25177 ft | 424 kts | 36° |
| 2026-04-25 18:08 | 24.01615 | 73.40449 | 25540 ft | 426 kts | 36° |
| 2026-04-25 18:08 | 24.04008 | 73.42391 | 25894 ft | 429 kts | 36° |
| 2026-04-25 18:08 | 24.06405 | 73.44341 | 26248 ft | 431 kts | 36° |
| 2026-04-25 18:08 | 24.08815 | 73.46302 | 26599 ft | 433 kts | 36° |
| 2026-04-25 18:09 | 24.11235 | 73.48274 | 26967 ft | 435 kts | 36° |
| 2026-04-25 18:09 | 24.13675 | 73.50261 | 27327 ft | 437 kts | 36° |
| 2026-04-25 18:09 | 24.16118 | 73.52250 | 27695 ft | 439 kts | 36° |
| 2026-04-25 18:09 | 24.16952 | 73.52929 | 27814 ft | 440 kts | 36° |
| 2026-04-25 18:10 | 24.21050 | 73.56263 | 28417 ft | 443 kts | 36° |
| 2026-04-25 18:10 | 24.23537 | 73.58290 | 28769 ft | 446 kts | 37° |
| 2026-04-25 18:10 | 24.26029 | 73.60327 | 29116 ft | 448 kts | 37° |
| 2026-04-25 18:10 | 24.28495 | 73.62344 | 29530 ft | 448 kts | 37° |
| 2026-04-25 18:11 | 24.30988 | 73.64383 | 30039 ft | 446 kts | 37° |
| 2026-04-25 18:11 | 24.33474 | 73.66419 | 30491 ft | 445 kts | 37° |
| 2026-04-25 18:11 | 24.35950 | 73.68446 | 30910 ft | 444 kts | 37° |
| 2026-04-25 18:11 | 24.38421 | 73.70468 | 31337 ft | 443 kts | 37° |
| 2026-04-25 18:12 | 24.40887 | 73.72486 | 31759 ft | 442 kts | 37° |
| 2026-04-25 18:12 | 24.43347 | 73.74498 | 32178 ft | 441 kts | 37° |
| 2026-04-25 18:12 | 24.45802 | 73.76507 | 32607 ft | 440 kts | 37° |
| 2026-04-25 18:12 | 24.48250 | 73.78512 | 33038 ft | 439 kts | 37° |
| 2026-04-25 18:13 | 24.50691 | 73.80515 | 33473 ft | 438 kts | 37° |
| 2026-04-25 18:13 | 24.53127 | 73.82518 | 33906 ft | 437 kts | 37° |
| 2026-04-25 18:13 | 24.55551 | 73.84512 | 34281 ft | 436 kts | 37° |
| 2026-04-25 18:14 | 24.60416 | 73.88508 | 34856 ft | 437 kts | 36° |
| 2026-04-25 18:14 | 24.62973 | 73.90341 | 34957 ft | 442 kts | 30° |
| 2026-04-25 18:14 | 24.68022 | 73.94280 | 34978 ft | 449 kts | 42° |
| 2026-04-25 18:15 | 24.72640 | 73.98925 | 34975 ft | 450 kts | 42° |
| 2026-04-25 18:15 | 24.77244 | 74.03583 | 34969 ft | 450 kts | 42° |
| 2026-04-25 18:16 | 24.81860 | 74.08243 | 34961 ft | 449 kts | 42° |
| 2026-04-25 18:17 | 24.88775 | 74.15229 | 34968 ft | 450 kts | 42° |
| 2026-04-25 18:17 | 24.93388 | 74.19894 | 34970 ft | 450 kts | 42° |
| 2026-04-25 18:18 | 24.97976 | 74.24537 | 34967 ft | 450 kts | 42° |
| 2026-04-25 18:18 | 25.02580 | 74.29206 | 34967 ft | 450 kts | 42° |
| 2026-04-25 18:19 | 25.07173 | 74.33877 | 34969 ft | 450 kts | 42° |
| 2026-04-25 18:19 | 25.11780 | 74.38557 | 34975 ft | 450 kts | 41° |
| 2026-04-25 18:20 | 25.16387 | 74.43233 | 34964 ft | 450 kts | 41° |
| 2026-04-25 18:20 | 25.20221 | 74.47133 | 34963 ft | 450 kts | 41° |
| 2026-04-25 18:21 | 25.24828 | 74.51830 | 34958 ft | 450 kts | 41° |
| 2026-04-25 18:21 | 25.29424 | 74.56530 | 34963 ft | 450 kts | 41° |
| 2026-04-25 18:22 | 25.34024 | 74.61233 | 34956 ft | 450 kts | 41° |
| 2026-04-25 18:22 | 25.38625 | 74.65925 | 34954 ft | 450 kts | 41° |
| 2026-04-25 18:23 | 25.43212 | 74.70624 | 34948 ft | 450 kts | 42° |
| 2026-04-25 18:23 | 25.47802 | 74.75335 | 34958 ft | 450 kts | 41° |
| 2026-04-25 18:24 | 25.52388 | 74.80044 | 34949 ft | 450 kts | 41° |
| 2026-04-25 18:24 | 25.56980 | 74.84758 | 34950 ft | 450 kts | 41° |
| 2026-04-25 18:25 | 25.61541 | 74.89444 | 34950 ft | 450 kts | 42° |
| 2026-04-25 18:25 | 25.66130 | 74.94170 | 34949 ft | 450 kts | 42° |
| 2026-04-25 18:26 | 25.70719 | 74.98889 | 34947 ft | 450 kts | 41° |
| 2026-04-25 18:26 | 25.75310 | 75.03622 | 34948 ft | 450 kts | 42° |
| 2026-04-25 18:27 | 25.79885 | 75.08352 | 34573 ft | 449 kts | 42° |
| 2026-04-25 18:27 | 25.82165 | 75.10710 | 34030 ft | 447 kts | 42° |
| 2026-04-25 18:27 | 25.84438 | 75.13061 | 33424 ft | 446 kts | 42° |
| 2026-04-25 18:27 | 25.86706 | 75.15407 | 32734 ft | 446 kts | 42° |
| 2026-04-25 18:28 | 25.88977 | 75.17756 | 32000 ft | 447 kts | 42° |
| 2026-04-25 18:28 | 25.91252 | 75.20111 | 31302 ft | 447 kts | 42° |
| 2026-04-25 18:28 | 25.93520 | 75.22460 | 30772 ft | 443 kts | 42° |
| 2026-04-25 18:29 | 25.97986 | 75.27093 | 29693 ft | 436 kts | 42° |
| 2026-04-25 18:29 | 26.00166 | 75.29358 | 29078 ft | 432 kts | 42° |
| 2026-04-25 18:30 | 26.06687 | 75.36141 | 27312 ft | 423 kts | 41° |
| 2026-04-25 18:30 | 26.08826 | 75.38365 | 26742 ft | 421 kts | 41° |
| 2026-04-25 18:30 | 26.10959 | 75.40585 | 26173 ft | 418 kts | 41° |
| 2026-04-25 18:30 | 26.13077 | 75.42791 | 25647 ft | 417 kts | 41° |
| 2026-04-25 18:31 | 26.15189 | 75.44992 | 25076 ft | 417 kts | 41° |
| 2026-04-25 18:31 | 26.17302 | 75.47197 | 24494 ft | 416 kts | 41° |
| 2026-04-25 18:31 | 26.19414 | 75.49401 | 23902 ft | 416 kts | 41° |
| 2026-04-25 18:31 | 26.21526 | 75.51603 | 23297 ft | 416 kts | 40° |
| 2026-04-25 18:32 | 26.23637 | 75.53802 | 22607 ft | 415 kts | 41° |
| 2026-04-25 18:32 | 26.25744 | 75.56000 | 21948 ft | 415 kts | 41° |
| 2026-04-25 18:32 | 26.27846 | 75.58196 | 21304 ft | 414 kts | 41° |
| 2026-04-25 18:32 | 26.29945 | 75.60391 | 20665 ft | 413 kts | 41° |
| 2026-04-25 18:33 | 26.32033 | 75.62577 | 20042 ft | 411 kts | 41° |
| 2026-04-25 18:33 | 26.34115 | 75.64757 | 19430 ft | 410 kts | 41° |
| 2026-04-25 18:33 | 26.36190 | 75.66932 | 18833 ft | 409 kts | 41° |
| 2026-04-25 18:33 | 26.38259 | 75.69103 | 18245 ft | 408 kts | 42° |
| 2026-04-25 18:34 | 26.40324 | 75.71271 | 17578 ft | 406 kts | 42° |
| 2026-04-25 18:34 | 26.42381 | 75.73429 | 16922 ft | 404 kts | 42° |
| 2026-04-25 18:34 | 26.44422 | 75.75572 | 16275 ft | 402 kts | 42° |
| 2026-04-25 18:34 | 26.46449 | 75.77703 | 15647 ft | 399 kts | 42° |
| 2026-04-25 18:35 | 26.48463 | 75.79822 | 15028 ft | 397 kts | 41° |
| 2026-04-25 18:35 | 26.50442 | 75.81900 | 14417 ft | 394 kts | 41° |
| 2026-04-25 18:35 | 26.52429 | 75.83986 | 13831 ft | 391 kts | 41° |
| 2026-04-25 18:35 | 26.54397 | 75.86054 | 13178 ft | 387 kts | 41° |
| 2026-04-25 18:36 | 26.56370 | 75.88133 | 12529 ft | 384 kts | 41° |
| 2026-04-25 18:36 | 26.58253 | 75.90120 | 12337 ft | 368 kts | 41° |
| 2026-04-25 18:36 | 26.60076 | 75.92044 | 12208 ft | 353 kts | 41° |
| 2026-04-25 18:36 | 26.61830 | 75.93894 | 12029 ft | 340 kts | 41° |
| 2026-04-25 18:37 | 26.63524 | 75.95679 | 11918 ft | 328 kts | 41° |
| 2026-04-25 18:37 | 26.65156 | 75.97400 | 11783 ft | 317 kts | 41° |
| 2026-04-25 18:37 | 26.66734 | 75.99064 | 11669 ft | 307 kts | 41° |
| 2026-04-25 18:37 | 26.68262 | 76.00679 | 11512 ft | 299 kts | 41° |
| 2026-04-25 18:38 | 26.69763 | 76.02267 | 11232 ft | 296 kts | 41° |
| 2026-04-25 18:38 | 26.71217 | 76.03890 | 10920 ft | 296 kts | 49° |
| 2026-04-25 18:38 | 26.72356 | 76.05809 | 10598 ft | 297 kts | 62° |
| 2026-04-25 18:38 | 26.73076 | 76.07969 | 10279 ft | 298 kts | 76° |
| 2026-04-25 18:39 | 26.73370 | 76.10258 | 9952 ft | 298 kts | 84° |
| 2026-04-25 18:39 | 26.73572 | 76.12561 | 9532 ft | 296 kts | 84° |
| 2026-04-25 18:39 | 26.73779 | 76.14858 | 8875 ft | 296 kts | 84° |
| 2026-04-25 18:39 | 26.73986 | 76.17113 | 8318 ft | 294 kts | 84° |
| 2026-04-25 18:40 | 26.74459 | 76.19322 | 7769 ft | 287 kts | 60° |
| 2026-04-25 18:40 | 26.75766 | 76.20954 | 7263 ft | 281 kts | 34° |
| 2026-04-25 18:40 | 26.77518 | 76.21867 | 6727 ft | 278 kts | 14° |
| 2026-04-25 18:40 | 26.79432 | 76.22037 | 6231 ft | 278 kts | 353° |
| 2026-04-25 18:41 | 26.81275 | 76.21416 | 6001 ft | 275 kts | 334° |
| 2026-04-25 18:41 | 26.82885 | 76.20272 | 5773 ft | 274 kts | 319° |
| 2026-04-25 18:41 | 26.84149 | 76.18730 | 5491 ft | 273 kts | 305° |
| 2026-04-25 18:41 | 26.85019 | 76.16843 | 5135 ft | 275 kts | 288° |
| 2026-04-25 18:42 | 26.85266 | 76.15420 | 4895 ft | 277 kts | 274° |